Sea Poseidon — V7UI7 — position and weather

sailwx.info

Track history (hours):
 
Tides and Currents Weather Stations Pressure Air Temp Water Temp Dewpoint Dewpoint Depression Visibility Wind Speed Wind Dir Waves Ship Positions

Sea Poseidon

Last reported at 2017-Sep-21 23:01 UTC. Time now 2017-Oct-19 00:21 UTC.
Position S 27°38' E 154°07'.
Warning: this ship's position is 27 days out of date.

Length 292 m; draft 15.3 m.

Type: Cargo ship. MMSI: 538003956.

Date/timePositionNaut miles runAvg speedWind from/ knotsBaromVisibWave heightAir tempDewpointWater temp
2017-Sep-21 23:01S 27°38' E 154°07'111.2
2017-Sep-21 22:57S 27°38' E 154°07'811.2
2017-Sep-21 22:15S 27°46' E 154°07'311.0
2017-Sep-21 22:00S 27°49' E 154°07'510.7
2017-Sep-21 21:30S 27°54' E 154°07'5 9.9
2017-Sep-21 21:00S 27°59' E 154°07'9 8.8
2017-Sep-21 20:02S 28°08' E 154°07'1 8.3
2017-Sep-21 19:57S 28°09' E 154°07'9 8.9
2017-Sep-21 18:56S 28°18' E 154°07'270 9.6
2017-Sep-20 14:54S 32°37' E 152°44'1411.2
2017-Sep-20 13:42S 32°46' E 152°31'211.7
2017-Sep-20 13:29S 32°47' E 152°28'611.6
2017-Sep-20 13:01S 32°49' E 152°22'611.3
2017-Sep-20 12:30S 32°52' E 152°16'611.2
2017-Sep-20 12:01S 32°53' E 152°10'611.5
2017-Sep-20 11:31S 32°54' E 152°03'611.2
2017-Sep-20 11:00S 32°56' E 151°57'6 9.6
2017-Sep-20 10:25S 32°57' E 151°50'4 4.8
2017-Sep-20 09:37S 32°55' E 151°46'1 3.9
2017-Sep-20 09:28S 32°54' E 151°46'1 0.0
2017-Sep-18 23:19S 32°53' E 151°45'0 0.1
2017-Sep-18 23:00S 32°53' E 151°45'1 2.4
2017-Sep-18 22:28S 32°54' E 151°46'2 3.9
2017-Sep-18 22:00S 32°55' E 151°48'4 8.3
2017-Sep-18 21:30S 32°57' E 151°52'4 8.6
2017-Sep-18 21:00S 33°01' E 151°53'0 0.9
2017-Sep-18 20:31S 33°01' E 151°52'5 9.1
2017-Sep-18 20:00S 33°06' E 151°53'5 9.3
2017-Sep-18 19:30S 33°10' E 151°53'2 4.3
2017-Sep-18 19:00S 33°13' E 151°54'1 1.5
2017-Sep-18 18:30S 33°12' E 151°55'1 1.3
2017-Sep-18 18:00S 33°12' E 151°55'1 1.5
2017-Sep-18 17:30S 33°12' E 151°56'1 1.3
2017-Sep-18 17:00S 33°11' E 151°57'1 1.4
2017-Sep-18 16:30S 33°11' E 151°58'1 1.5
2017-Sep-18 16:00S 33°11' E 151°59'1 1.5
2017-Sep-18 15:30S 33°10' E 151°59'1 1.4
2017-Sep-18 15:00S 33°10' E 152°00'1 1.6
2017-Sep-18 14:30S 33°10' E 152°01'1 1.8
2017-Sep-18 14:00S 33°09' E 152°02'1 2.0
2017-Sep-18 13:30S 33°09' E 152°03'1 2.1
2017-Sep-18 13:00S 33°09' E 152°04'1 2.2
2017-Sep-18 12:30S 33°08' E 152°06'1 2.2
2017-Sep-18 12:00S 33°08' E 152°07'1 2.3
2017-Sep-18 11:27S 33°08' E 152°08'1 2.2
2017-Sep-18 11:00S 33°07' E 152°09'1 2.4
2017-Sep-18 10:30S 33°07' E 152°11'1 2.2
2017-Sep-18 09:51S 33°07' E 152°12'1 2.2
2017-Sep-18 09:30S 33°07' E 152°13'1 2.2
2017-Sep-18 09:00S 33°06' E 152°15'1 2.0
2017-Sep-18 08:30S 33°06' E 152°16'1 1.9
2017-Sep-18 08:00S 33°06' E 152°17'1 2.0
2017-Sep-18 07:31S 33°07' E 152°18'4 8.9
2017-Sep-18 07:01S 33°09' E 152°22'4 8.1
2017-Sep-18 06:30S 33°12' E 152°26'1 1.6
2017-Sep-18 05:58S 33°11' E 152°26'1 1.6
2017-Sep-18 05:28S 33°10' E 152°25'1 1.6
2017-Sep-18 04:58S 33°09' E 152°25'1 1.6
2017-Sep-18 04:28S 33°09' E 152°25'1 1.4
2017-Sep-18 03:58S 33°08' E 152°25'1 1.4
2017-Sep-18 03:28S 33°07' E 152°24'1 1.3
2017-Sep-18 02:58S 33°07' E 152°24'1 1.1
2017-Sep-18 02:28S 33°06' E 152°24'1 1.2
2017-Sep-18 01:58S 33°06' E 152°23'1 1.3
2017-Sep-18 01:25S 33°05' E 152°23'1 1.4
2017-Sep-18 00:58S 33°05' E 152°22'1 1.3
2017-Sep-18 00:28S 33°04' E 152°22'1 1.5
2017-Sep-17 23:58S 33°04' E 152°21'2 5.0
2017-Sep-17 23:30S 33°04' E 152°18'5 9.8
2017-Sep-17 23:00S 33°03' E 152°13'510.0
2017-Sep-17 22:30S 33°02' E 152°07'5 9.7
2017-Sep-17 22:00S 33°02' E 152°01'3 5.3
2017-Sep-17 21:28S 33°02' E 151°58'0 0.0
2017-Sep-17 20:58S 33°02' E 151°58'0 0.2
2017-Sep-17 20:28S 33°02' E 151°58'0 0.5
2017-Sep-17 19:58S 33°02' E 151°58'1 1.1
2017-Sep-17 19:28S 33°02' E 151°58'1 1.1
2017-Sep-17 18:58S 33°01' E 151°59'1 1.1
2017-Sep-17 18:28S 33°01' E 151°60'1 1.1
2017-Sep-17 17:58S 33°01' E 152°00'1 1.2
2017-Sep-17 17:28S 33°01' E 152°01'1 1.2
2017-Sep-17 16:58S 33°00' E 152°01'1 1.1
2017-Sep-17 16:28S 33°00' E 152°02'1 1.0
2017-Sep-17 15:58S 33°00' E 152°03'0 0.9
2017-Sep-17 15:28S 32°60' E 152°03'0 0.6
2017-Sep-17 14:58S 32°60' E 152°03'0 0.5
2017-Sep-17 14:28S 32°60' E 152°04'0 0.6
2017-Sep-17 13:58S 33°00' E 152°04'0 0.7
2017-Sep-17 13:28S 33°00' E 152°04'1 1.1
2017-Sep-17 12:58S 33°01' E 152°04'1 1.6
2017-Sep-17 12:28S 33°01' E 152°05'1 1.7
2017-Sep-17 11:58S 33°02' E 152°06'4 1.4
2017-Sep-17 09:13S 33°02' E 152°10'0 1.2
2017-Sep-17 08:49S 33°03' E 152°11'0 1.2
2017-Sep-17 08:25S 33°03' E 152°12'1 1.4
2017-Sep-17 07:58S 33°03' E 152°12'2 1.6
2017-Sep-17 06:27S 33°05' E 152°14'0 0.7
2017-Sep-17 06:00S 33°05' E 152°14'3 6.5
2017-Sep-17 05:30S 33°02' E 152°17'4 8.5
2017-Sep-17 05:00S 32°59' E 152°20'4 8.1
2017-Sep-17 04:30S 32°55' E 152°22'6 8.5
2017-Sep-17 03:50S 32°51' E 152°27'3 8.1
2017-Sep-17 03:30S 32°49' E 152°29'1 1.1
2017-Sep-17 02:58S 32°48' E 152°29'1 1.0
2017-Sep-17 02:28S 32°49' E 152°28'0 1.0
2017-Sep-17 01:58S 32°49' E 152°28'1 1.0
2017-Sep-17 01:28S 32°50' E 152°28'1 1.1
2017-Sep-17 00:58S 32°50' E 152°27'1 1.1
2017-Sep-17 00:28S 32°51' E 152°27'1 1.0
2017-Sep-16 23:58S 32°51' E 152°27'1 1.1
2017-Sep-16 23:28S 32°52' E 152°26'1 1.3
2017-Sep-16 22:58S 32°52' E 152°26'1 1.3
2017-Sep-16 22:28S 32°53' E 152°25'1 1.4
2017-Sep-16 21:58S 32°53' E 152°25'1 1.5
2017-Sep-16 21:30S 32°53' E 152°24'1 1.6
2017-Sep-16 21:00S 32°54' E 152°23'1 1.7
2017-Sep-16 20:30S 32°55' E 152°23'1 1.5
2017-Sep-16 20:00S 32°55' E 152°22'1 1.3
2017-Sep-16 19:30S 32°56' E 152°21'1 1.2
2017-Sep-16 19:00S 32°56' E 152°21'1 1.2
2017-Sep-16 18:30S 32°57' E 152°21'1 1.3
2017-Sep-16 17:59S 32°57' E 152°20'1 1.4
2017-Sep-16 17:29S 32°58' E 152°20'1 1.5
2017-Sep-16 17:00S 32°58' E 152°19'1 1.7
2017-Sep-16 16:31S 32°59' E 152°19'1 1.7
2017-Sep-16 16:00S 32°60' E 152°18'1 1.7
2017-Sep-16 15:29S 33°01' E 152°18'1 1.8
2017-Sep-16 14:59S 33°01' E 152°17'1 1.8
2017-Sep-16 14:30S 33°02' E 152°17'1 1.8
2017-Sep-16 14:00S 33°03' E 152°16'1 1.8
2017-Sep-16 13:30S 33°04' E 152°16'1 1.8
2017-Sep-16 13:00S 33°04' E 152°15'1 1.8
2017-Sep-16 12:30S 33°05' E 152°14'1 1.8
2017-Sep-16 12:00S 33°06' E 152°14'1 1.8
2017-Sep-16 11:30S 33°06' E 152°13'1 1.8
2017-Sep-16 11:00S 33°07' E 152°12'4 7.4
2017-Sep-16 10:30S 33°06' E 152°08'4 8.7
2017-Sep-16 10:00S 33°06' E 152°02'3 6.7
2017-Sep-16 09:31S 33°05' E 151°58'1 2.1
2017-Sep-16 08:58S 33°06' E 151°60'1 1.9
2017-Sep-16 08:28S 33°06' E 152°01'1 2.2
2017-Sep-16 07:58S 33°07' E 152°02'1 2.2
2017-Sep-16 07:22S 33°08' E 152°03'3 1.6
2017-Sep-16 05:43S 33°09' E 152°06'1 2.3
2017-Sep-16 05:30S 33°09' E 152°06'12 7.9
2017-Sep-16 04:00S 33°09' E 152°20'3 0.5
2017-Sep-15 21:58S 33°06' E 152°21'1 1.5
2017-Sep-15 21:28S 33°06' E 152°21'1 1.5
2017-Sep-15 20:58S 33°06' E 152°20'1 1.4
2017-Sep-15 20:25S 33°06' E 152°19'1 1.3
2017-Sep-15 19:58S 33°06' E 152°18'1 1.3
2017-Sep-15 19:28S 33°06' E 152°17'1 1.3
2017-Sep-15 18:58S 33°06' E 152°17'1 1.3
2017-Sep-15 18:28S 33°06' E 152°16'1 1.2
2017-Sep-15 17:58S 33°06' E 152°15'1 1.1
2017-Sep-15 17:28S 33°06' E 152°15'0 1.0
2017-Sep-15 16:58S 33°07' E 152°14'1 1.0
2017-Sep-15 16:28S 33°07' E 152°14'1 1.2
2017-Sep-15 15:58S 33°07' E 152°13'1 1.1
2017-Sep-15 15:28S 33°08' E 152°13'1 1.1
2017-Sep-15 14:58S 33°08' E 152°12'1 1.1
2017-Sep-15 14:28S 33°08' E 152°11'1 1.1
2017-Sep-15 13:58S 33°09' E 152°11'0 1.0
2017-Sep-15 13:28S 33°09' E 152°11'1 1.0
2017-Sep-15 12:58S 33°09' E 152°10'1 0.5
2017-Sep-15 11:46S 33°09' E 152°09'1 4.3
2017-Sep-15 11:31S 33°09' E 152°08'510.2
2017-Sep-15 11:00S 33°06' E 152°03'510.5
2017-Sep-15 10:31S 33°02' E 151°58'2 3.5
2017-Sep-15 09:57S 33°01' E 152°00'511.5
2017-Sep-15 09:30S 33°02' E 152°06'612.3
2017-Sep-15 08:58S 33°02' E 152°14'712.4
2017-Sep-15 08:24S 33°01' E 152°22'510.8
2017-Sep-15 07:58S 33°01' E 152°28'1 1.7
2017-Sep-15 07:29S 33°02' E 152°29'1 1.1
2017-Sep-15 06:59S 33°02' E 152°29'21 2.9
2017-Sep-14 23:32S 32°48' E 152°48'0 1.2
2017-Sep-14 23:29S 32°48' E 152°48'1 1.3
2017-Sep-14 22:59S 32°49' E 152°48'1 1.5
2017-Sep-14 22:28S 32°49' E 152°47'1 1.6
2017-Sep-14 21:59S 32°49' E 152°46'1 1.9
2017-Sep-14 21:29S 32°50' E 152°45'1 2.0
2017-Sep-14 20:49S 32°51' E 152°44'1 2.2
2017-Sep-14 20:25S 32°51' E 152°43'2 2.2
2017-Sep-14 19:40S 32°52' E 152°42'0 2.5
2017-Sep-14 19:28S 32°53' E 152°41'1 2.5
2017-Sep-14 18:58S 32°54' E 152°41'1 2.7
2017-Sep-14 18:28S 32°55' E 152°40'6 2.3
2017-Sep-14 15:55S 33°00' E 152°38'1 2.1
2017-Sep-14 15:22S 33°02' E 152°37'1 2.3
2017-Sep-14 14:55S 33°03' E 152°37'5 2.2
2017-Sep-14 12:53S 33°07' E 152°36'15 0.6
2017-Sep-13 10:47S 33°20' E 152°43'1 2.2
2017-Sep-13 10:30S 33°20' E 152°43'1 2.4
2017-Sep-13 10:00S 33°19' E 152°42'1 2.5
2017-Sep-13 09:30S 33°18' E 152°41'1 2.6
2017-Sep-13 09:00S 33°17' E 152°40'1 2.4
2017-Sep-13 08:30S 33°16' E 152°39'1 2.5
2017-Sep-13 08:00S 33°15' E 152°38'1 2.4
2017-Sep-13 07:29S 33°14' E 152°37'3 2.5
2017-Sep-13 06:21S 33°12' E 152°35'1 2.5
2017-Sep-13 05:59S 33°11' E 152°35'1 2.5
2017-Sep-13 05:30S 33°10' E 152°34'1 2.4
2017-Sep-13 05:00S 33°09' E 152°33'1 2.4
2017-Sep-13 04:30S 33°08' E 152°32'1 2.1
2017-Sep-13 03:57S 33°07' E 152°31'1 1.9
2017-Sep-13 03:30S 33°07' E 152°31'1 1.6
2017-Sep-13 03:00S 33°06' E 152°30'1 1.5
2017-Sep-13 02:30S 33°05' E 152°30'1 1.5
2017-Sep-13 02:00S 33°05' E 152°29'1 2.4
2017-Sep-13 01:30S 33°06' E 152°28'5 9.2
2017-Sep-13 01:00S 33°09' E 152°24'510.3
2017-Sep-13 00:30S 33°13' E 152°20'510.6
2017-Sep-13 00:00S 33°17' E 152°16'510.4
2017-Sep-12 23:30S 33°21' E 152°12'610.4
2017-Sep-12 22:58S 33°26' E 152°08'710.2
2017-Sep-12 22:16S 33°31' E 152°03'310.2
2017-Sep-12 21:56S 33°34' E 152°00'610.3
2017-Sep-12 21:21S 33°38' E 151°56'510.1
2017-Sep-12 20:54S 33°42' E 151°52'4 9.8
2017-Sep-12 20:30S 33°45' E 151°49'6 9.7
2017-Sep-12 19:54S 33°50' E 151°45'5 9.5
2017-Sep-12 19:25S 33°54' E 151°42'4 9.1
2017-Sep-12 19:00S 33°57' E 151°39'4 8.8
2017-Sep-12 18:30S 34°00' E 151°36'  
Track history (hours):
 
Tides and Currents Weather Stations Pressure Air Temp Water Temp Dewpoint Dewpoint Depression Visibility Wind Speed Wind Dir Waves Ship Positions

Sea Poseidon

Last reported at 2017-Sep-21 23:01 UTC. Time now 2017-Oct-19 00:21 UTC.
Position S 27°38' E 154°07'.
Warning: this ship's position is 27 days out of date.

Length 292 m; draft 15.3 m.

Type: Cargo ship. MMSI: 538003956.

Date/timePositionNaut miles runAvg speedWind from/ knotsBaromVisibWave heightAir tempDewpointWater temp
2017-Sep-21 23:01S 27°38' E 154°07'111.2
2017-Sep-21 22:57S 27°38' E 154°07'811.2
2017-Sep-21 22:15S 27°46' E 154°07'311.0
2017-Sep-21 22:00S 27°49' E 154°07'510.7
2017-Sep-21 21:30S 27°54' E 154°07'5 9.9
2017-Sep-21 21:00S 27°59' E 154°07'9 8.8
2017-Sep-21 20:02S 28°08' E 154°07'1 8.3
2017-Sep-21 19:57S 28°09' E 154°07'9 8.9
2017-Sep-21 18:56S 28°18' E 154°07'270 9.6
2017-Sep-20 14:54S 32°37' E 152°44'1411.2
2017-Sep-20 13:42S 32°46' E 152°31'211.7
2017-Sep-20 13:29S 32°47' E 152°28'611.6
2017-Sep-20 13:01S 32°49' E 152°22'611.3
2017-Sep-20 12:30S 32°52' E 152°16'611.2
2017-Sep-20 12:01S 32°53' E 152°10'611.5
2017-Sep-20 11:31S 32°54' E 152°03'611.2
2017-Sep-20 11:00S 32°56' E 151°57'6 9.6
2017-Sep-20 10:25S 32°57' E 151°50'4 4.8
2017-Sep-20 09:37S 32°55' E 151°46'1 3.9
2017-Sep-20 09:28S 32°54' E 151°46'1 0.0
2017-Sep-18 23:19S 32°53' E 151°45'0 0.1
2017-Sep-18 23:00S 32°53' E 151°45'1 2.4
2017-Sep-18 22:28S 32°54' E 151°46'2 3.9
2017-Sep-18 22:00S 32°55' E 151°48'4 8.3
2017-Sep-18 21:30S 32°57' E 151°52'4 8.6
2017-Sep-18 21:00S 33°01' E 151°53'0 0.9
2017-Sep-18 20:31S 33°01' E 151°52'5 9.1
2017-Sep-18 20:00S 33°06' E 151°53'5 9.3
2017-Sep-18 19:30S 33°10' E 151°53'2 4.3
2017-Sep-18 19:00S 33°13' E 151°54'1 1.5
2017-Sep-18 18:30S 33°12' E 151°55'1 1.3
2017-Sep-18 18:00S 33°12' E 151°55'1 1.5
2017-Sep-18 17:30S 33°12' E 151°56'1 1.3
2017-Sep-18 17:00S 33°11' E 151°57'1 1.4
2017-Sep-18 16:30S 33°11' E 151°58'1 1.5
2017-Sep-18 16:00S 33°11' E 151°59'1 1.5
2017-Sep-18 15:30S 33°10' E 151°59'1 1.4
2017-Sep-18 15:00S 33°10' E 152°00'1 1.6
2017-Sep-18 14:30S 33°10' E 152°01'1 1.8
2017-Sep-18 14:00S 33°09' E 152°02'1 2.0
2017-Sep-18 13:30S 33°09' E 152°03'1 2.1
2017-Sep-18 13:00S 33°09' E 152°04'1 2.2
2017-Sep-18 12:30S 33°08' E 152°06'1 2.2
2017-Sep-18 12:00S 33°08' E 152°07'1 2.3
2017-Sep-18 11:27S 33°08' E 152°08'1 2.2
2017-Sep-18 11:00S 33°07' E 152°09'1 2.4
2017-Sep-18 10:30S 33°07' E 152°11'1 2.2
2017-Sep-18 09:51S 33°07' E 152°12'1 2.2
2017-Sep-18 09:30S 33°07' E 152°13'1 2.2
2017-Sep-18 09:00S 33°06' E 152°15'1 2.0
2017-Sep-18 08:30S 33°06' E 152°16'1 1.9
2017-Sep-18 08:00S 33°06' E 152°17'1 2.0
2017-Sep-18 07:31S 33°07' E 152°18'4 8.9
2017-Sep-18 07:01S 33°09' E 152°22'4 8.1
2017-Sep-18 06:30S 33°12' E 152°26'1 1.6
2017-Sep-18 05:58S 33°11' E 152°26'1 1.6
2017-Sep-18 05:28S 33°10' E 152°25'1 1.6
2017-Sep-18 04:58S 33°09' E 152°25'1 1.6
2017-Sep-18 04:28S 33°09' E 152°25'1 1.4
2017-Sep-18 03:58S 33°08' E 152°25'1 1.4
2017-Sep-18 03:28S 33°07' E 152°24'1 1.3
2017-Sep-18 02:58S 33°07' E 152°24'1 1.1
2017-Sep-18 02:28S 33°06' E 152°24'1 1.2
2017-Sep-18 01:58S 33°06' E 152°23'1 1.3
2017-Sep-18 01:25S 33°05' E 152°23'1 1.4
2017-Sep-18 00:58S 33°05' E 152°22'1 1.3
2017-Sep-18 00:28S 33°04' E 152°22'1 1.5
2017-Sep-17 23:58S 33°04' E 152°21'2 5.0
2017-Sep-17 23:30S 33°04' E 152°18'5 9.8
2017-Sep-17 23:00S 33°03' E 152°13'510.0
2017-Sep-17 22:30S 33°02' E 152°07'5 9.7
2017-Sep-17 22:00S 33°02' E 152°01'3 5.3
2017-Sep-17 21:28S 33°02' E 151°58'0 0.0
2017-Sep-17 20:58S 33°02' E 151°58'0 0.2
2017-Sep-17 20:28S 33°02' E 151°58'0 0.5
2017-Sep-17 19:58S 33°02' E 151°58'1 1.1
2017-Sep-17 19:28S 33°02' E 151°58'1 1.1
2017-Sep-17 18:58S 33°01' E 151°59'1 1.1
2017-Sep-17 18:28S 33°01' E 151°60'1 1.1
2017-Sep-17 17:58S 33°01' E 152°00'1 1.2
2017-Sep-17 17:28S 33°01' E 152°01'1 1.2
2017-Sep-17 16:58S 33°00' E 152°01'1 1.1
2017-Sep-17 16:28S 33°00' E 152°02'1 1.0
2017-Sep-17 15:58S 33°00' E 152°03'0 0.9
2017-Sep-17 15:28S 32°60' E 152°03'0 0.6
2017-Sep-17 14:58S 32°60' E 152°03'0 0.5
2017-Sep-17 14:28S 32°60' E 152°04'0 0.6
2017-Sep-17 13:58S 33°00' E 152°04'0 0.7
2017-Sep-17 13:28S 33°00' E 152°04'1 1.1
2017-Sep-17 12:58S 33°01' E 152°04'1 1.6
2017-Sep-17 12:28S 33°01' E 152°05'1 1.7
2017-Sep-17 11:58S 33°02' E 152°06'4 1.4
2017-Sep-17 09:13S 33°02' E 152°10'0 1.2
2017-Sep-17 08:49S 33°03' E 152°11'0 1.2
2017-Sep-17 08:25S 33°03' E 152°12'1 1.4
2017-Sep-17 07:58S 33°03' E 152°12'2 1.6
2017-Sep-17 06:27S 33°05' E 152°14'0 0.7
2017-Sep-17 06:00S 33°05' E 152°14'3 6.5
2017-Sep-17 05:30S 33°02' E 152°17'4 8.5
2017-Sep-17 05:00S 32°59' E 152°20'4 8.1
2017-Sep-17 04:30S 32°55' E 152°22'6 8.5
2017-Sep-17 03:50S 32°51' E 152°27'3 8.1
2017-Sep-17 03:30S 32°49' E 152°29'1 1.1
2017-Sep-17 02:58S 32°48' E 152°29'1 1.0
2017-Sep-17 02:28S 32°49' E 152°28'0 1.0
2017-Sep-17 01:58S 32°49' E 152°28'1 1.0
2017-Sep-17 01:28S 32°50' E 152°28'1 1.1
2017-Sep-17 00:58S 32°50' E 152°27'1 1.1
2017-Sep-17 00:28S 32°51' E 152°27'1 1.0
2017-Sep-16 23:58S 32°51' E 152°27'1 1.1
2017-Sep-16 23:28S 32°52' E 152°26'1 1.3
2017-Sep-16 22:58S 32°52' E 152°26'1 1.3
2017-Sep-16 22:28S 32°53' E 152°25'1 1.4
2017-Sep-16 21:58S 32°53' E 152°25'1 1.5
2017-Sep-16 21:30S 32°53' E 152°24'1 1.6
2017-Sep-16 21:00S 32°54' E 152°23'1 1.7
2017-Sep-16 20:30S 32°55' E 152°23'1 1.5
2017-Sep-16 20:00S 32°55' E 152°22'1 1.3
2017-Sep-16 19:30S 32°56' E 152°21'1 1.2
2017-Sep-16 19:00S 32°56' E 152°21'1 1.2
2017-Sep-16 18:30S 32°57' E 152°21'1 1.3
2017-Sep-16 17:59S 32°57' E 152°20'1 1.4
2017-Sep-16 17:29S 32°58' E 152°20'1 1.5
2017-Sep-16 17:00S 32°58' E 152°19'1 1.7
2017-Sep-16 16:31S 32°59' E 152°19'1 1.7
2017-Sep-16 16:00S 32°60' E 152°18'1 1.7
2017-Sep-16 15:29S 33°01' E 152°18'1 1.8
2017-Sep-16 14:59S 33°01' E 152°17'1 1.8
2017-Sep-16 14:30S 33°02' E 152°17'1 1.8
2017-Sep-16 14:00S 33°03' E 152°16'1 1.8
2017-Sep-16 13:30S 33°04' E 152°16'1 1.8
2017-Sep-16 13:00S 33°04' E 152°15'1 1.8
2017-Sep-16 12:30S 33°05' E 152°14'1 1.8
2017-Sep-16 12:00S 33°06' E 152°14'1 1.8
2017-Sep-16 11:30S 33°06' E 152°13'1 1.8
2017-Sep-16 11:00S 33°07' E 152°12'4 7.4
2017-Sep-16 10:30S 33°06' E 152°08'4 8.7
2017-Sep-16 10:00S 33°06' E 152°02'3 6.7
2017-Sep-16 09:31S 33°05' E 151°58'1 2.1
2017-Sep-16 08:58S 33°06' E 151°60'1 1.9
2017-Sep-16 08:28S 33°06' E 152°01'1 2.2
2017-Sep-16 07:58S 33°07' E 152°02'1 2.2
2017-Sep-16 07:22S 33°08' E 152°03'3 1.6
2017-Sep-16 05:43S 33°09' E 152°06'1 2.3
2017-Sep-16 05:30S 33°09' E 152°06'12 7.9
2017-Sep-16 04:00S 33°09' E 152°20'3 0.5
2017-Sep-15 21:58S 33°06' E 152°21'1 1.5
2017-Sep-15 21:28S 33°06' E 152°21'1 1.5
2017-Sep-15 20:58S 33°06' E 152°20'1 1.4
2017-Sep-15 20:25S 33°06' E 152°19'1 1.3
2017-Sep-15 19:58S 33°06' E 152°18'1 1.3
2017-Sep-15 19:28S 33°06' E 152°17'1 1.3
2017-Sep-15 18:58S 33°06' E 152°17'1 1.3
2017-Sep-15 18:28S 33°06' E 152°16'1 1.2
2017-Sep-15 17:58S 33°06' E 152°15'1 1.1
2017-Sep-15 17:28S 33°06' E 152°15'0 1.0
2017-Sep-15 16:58S 33°07' E 152°14'1 1.0
2017-Sep-15 16:28S 33°07' E 152°14'1 1.2
2017-Sep-15 15:58S 33°07' E 152°13'1 1.1
2017-Sep-15 15:28S 33°08' E 152°13'1 1.1
2017-Sep-15 14:58S 33°08' E 152°12'1 1.1
2017-Sep-15 14:28S 33°08' E 152°11'1 1.1
2017-Sep-15 13:58S 33°09' E 152°11'0 1.0
2017-Sep-15 13:28S 33°09' E 152°11'1 1.0
2017-Sep-15 12:58S 33°09' E 152°10'1 0.5
2017-Sep-15 11:46S 33°09' E 152°09'1 4.3
2017-Sep-15 11:31S 33°09' E 152°08'510.2
2017-Sep-15 11:00S 33°06' E 152°03'510.5
2017-Sep-15 10:31S 33°02' E 151°58'2 3.5
2017-Sep-15 09:57S 33°01' E 152°00'511.5
2017-Sep-15 09:30S 33°02' E 152°06'612.3
2017-Sep-15 08:58S 33°02' E 152°14'712.4
2017-Sep-15 08:24S 33°01' E 152°22'510.8
2017-Sep-15 07:58S 33°01' E 152°28'1 1.7
2017-Sep-15 07:29S 33°02' E 152°29'1 1.1
2017-Sep-15 06:59S 33°02' E 152°29'21 2.9
2017-Sep-14 23:32S 32°48' E 152°48'0 1.2
2017-Sep-14 23:29S 32°48' E 152°48'1 1.3
2017-Sep-14 22:59S 32°49' E 152°48'1 1.5
2017-Sep-14 22:28S 32°49' E 152°47'1 1.6
2017-Sep-14 21:59S 32°49' E 152°46'1 1.9
2017-Sep-14 21:29S 32°50' E 152°45'1 2.0
2017-Sep-14 20:49S 32°51' E 152°44'1 2.2
2017-Sep-14 20:25S 32°51' E 152°43'2 2.2
2017-Sep-14 19:40S 32°52' E 152°42'0 2.5
2017-Sep-14 19:28S 32°53' E 152°41'1 2.5
2017-Sep-14 18:58S 32°54' E 152°41'1 2.7
2017-Sep-14 18:28S 32°55' E 152°40'6 2.3
2017-Sep-14 15:55S 33°00' E 152°38'1 2.1
2017-Sep-14 15:22S 33°02' E 152°37'1 2.3
2017-Sep-14 14:55S 33°03' E 152°37'5 2.2
2017-Sep-14 12:53S 33°07' E 152°36'15 0.6
2017-Sep-13 10:47S 33°20' E 152°43'1 2.2
2017-Sep-13 10:30S 33°20' E 152°43'1 2.4
2017-Sep-13 10:00S 33°19' E 152°42'1 2.5
2017-Sep-13 09:30S 33°18' E 152°41'1 2.6
2017-Sep-13 09:00S 33°17' E 152°40'1 2.4
2017-Sep-13 08:30S 33°16' E 152°39'1 2.5
2017-Sep-13 08:00S 33°15' E 152°38'1 2.4
2017-Sep-13 07:29S 33°14' E 152°37'3 2.5
2017-Sep-13 06:21S 33°12' E 152°35'1 2.5
2017-Sep-13 05:59S 33°11' E 152°35'1 2.5
2017-Sep-13 05:30S 33°10' E 152°34'1 2.4
2017-Sep-13 05:00S 33°09' E 152°33'1 2.4
2017-Sep-13 04:30S 33°08' E 152°32'1 2.1
2017-Sep-13 03:57S 33°07' E 152°31'1 1.9
2017-Sep-13 03:30S 33°07' E 152°31'1 1.6
2017-Sep-13 03:00S 33°06' E 152°30'1 1.5
2017-Sep-13 02:30S 33°05' E 152°30'1 1.5
2017-Sep-13 02:00S 33°05' E 152°29'1 2.4
2017-Sep-13 01:30S 33°06' E 152°28'5 9.2
2017-Sep-13 01:00S 33°09' E 152°24'510.3
2017-Sep-13 00:30S 33°13' E 152°20'510.6
2017-Sep-13 00:00S 33°17' E 152°16'510.4
2017-Sep-12 23:30S 33°21' E 152°12'610.4
2017-Sep-12 22:58S 33°26' E 152°08'710.2
2017-Sep-12 22:16S 33°31' E 152°03'310.2
2017-Sep-12 21:56S 33°34' E 152°00'610.3
2017-Sep-12 21:21S 33°38' E 151°56'510.1
2017-Sep-12 20:54S 33°42' E 151°52'4 9.8
2017-Sep-12 20:30S 33°45' E 151°49'6 9.7
2017-Sep-12 19:54S 33°50' E 151°45'5 9.5
2017-Sep-12 19:25S 33°54' E 151°42'4 9.1
2017-Sep-12 19:00S 33°57' E 151°39'4 8.8
2017-Sep-12 18:30S 34°00' E 151°36'  

Dump ship's entire track history